Time;durP1;ratioP1;P1;durP2;ratioP2;P2;SDS_P1;SDS_P2;PMS_P1;PMS_P2;Temp;Humidity;BMP_temperature;BMP_pressure;BME280_temperature;BME280_humidity;BME280_pressure;Samples;Min_cycle;Max_cycle;Signal;HPM_P1;HPM_P2
2021/08/18 00:00:22;;;;;;;1.13;0.45;;;;;;;17.38;56.40;98617.59;5093727;28;20032;-64
2021/08/18 00:02:48;;;;;;;0.30;0.30;;;;;;;17.38;56.59;98620.38;5093544;28;20499;-64
2021/08/18 00:05:15;;;;;;;0.20;0.20;;;;;;;17.37;56.54;98617.88;5093422;28;20032;-64
2021/08/18 00:07:42;;;;;;;0.85;0.70;;;;;;;17.34;56.71;98624.81;5075384;28;20043;-64
2021/08/18 00:10:13;;;;;;;0.47;0.47;;;;;;;17.32;56.72;98610.41;5093858;28;20032;-63
2021/08/18 00:12:40;;;;;;;0.60;0.60;;;;;;;17.31;56.75;98626.22;5094290;28;20048;-63
2021/08/18 00:15:08;;;;;;;0.10;0.10;;;;;;;17.31;56.84;98617.91;5105448;28;20050;-63
2021/08/18 00:17:34;;;;;;;0.65;0.65;;;;;;;17.31;56.88;98617.91;5104058;28;20194;-63
2021/08/18 00:19:59;;;;;;;0.75;0.75;;;;;;;17.32;56.81;98615.97;5095059;28;20061;-68
2021/08/18 00:22:25;;;;;;;0.17;0.17;;;;;;;17.29;56.94;98622.06;5093544;28;20044;-66
2021/08/18 00:24:51;;;;;;;0.25;0.25;;;;;;;17.28;57.03;98626.78;5092965;28;20093;-66
2021/08/18 00:27:16;;;;;;;0.20;0.20;;;;;;;17.25;56.96;98621.78;5093143;28;20032;-63
2021/08/18 00:29:42;;;;;;;0.25;0.22;;;;;;;17.25;57.12;98623.75;5093177;28;20040;-62
2021/08/18 00:32:09;;;;;;;1.35;0.82;;;;;;;17.25;57.32;98620.97;5093403;28;20036;-63
2021/08/18 00:34:34;;;;;;;0.47;0.47;;;;;;;17.22;57.31;98625.13;5093032;28;20164;-64
2021/08/18 00:37:00;;;;;;;0.20;0.20;;;;;;;17.21;57.33;98625.41;5093098;28;20121;-64
2021/08/18 00:39:26;;;;;;;0.63;0.63;;;;;;;17.19;57.39;98611.84;5093193;28;20056;-64
2021/08/18 00:41:52;;;;;;;0.38;0.38;;;;;;;17.17;57.49;98619.63;5092904;28;20035;-64
2021/08/18 00:44:18;;;;;;;2.08;0.40;;;;;;;17.14;57.56;98621.00;5092986;28;20040;-64
2021/08/18 00:46:52;;;;;;;0.85;0.22;;;;;;;17.11;57.72;98621.56;5092866;28;20036;-64
2021/08/18 00:49:19;;;;;;;2.97;0.40;;;;;;;17.08;57.89;98621.31;5093055;28;20139;-65
2021/08/18 00:51:45;;;;;;;0.20;0.20;;;;;;;17.07;57.85;98622.44;5093083;28;20044;-64
2021/08/18 00:54:11;;;;;;;0.45;0.43;;;;;;;17.06;57.91;98624.34;5092748;28;20036;-64
2021/08/18 00:56:36;;;;;;;0.65;0.65;;;;;;;17.09;57.68;98628.53;5092814;28;20124;-63
2021/08/18 00:59:03;;;;;;;1.98;0.63;;;;;;;17.11;57.84;98627.13;5092678;28;20401;-64
2021/08/18 01:01:29;;;;;;;0.20;0.20;;;;;;;17.15;57.51;98630.16;5092930;28;20119;-65
2021/08/18 01:03:55;;;;;;;1.17;0.63;;;;;;;17.20;57.64;98640.44;5092260;28;20067;-64
2021/08/18 01:06:20;;;;;;;1.25;0.55;;;;;;;17.22;57.94;98640.97;5092660;28;20073;-64
2021/08/18 01:08:46;;;;;;;0.25;0.25;;;;;;;17.26;57.56;98633.75;5092661;28;20093;-65
2021/08/18 01:11:12;;;;;;;0.50;0.50;;;;;;;17.31;57.54;98634.56;5092720;28;20043;-65
2021/08/18 01:13:38;;;;;;;0.40;0.30;;;;;;;17.36;57.43;98632.84;5092528;28;20480;-64
2021/08/18 01:16:04;;;;;;;1.38;1.23;;;;;;;17.40;57.39;98631.19;5092477;28;20182;-63
2021/08/18 01:18:30;;;;;;;0.40;0.40;;;;;;;17.44;57.19;98640.59;5074356;28;20059;-64
2021/08/18 01:20:56;;;;;;;1.85;1.75;;;;;;;17.48;57.23;98638.91;5092711;28;20117;-66
2021/08/18 01:23:22;;;;;;;0.40;0.40;;;;;;;17.54;57.17;98634.19;5092280;28;20499;-64
2021/08/18 01:25:48;;;;;;;0.47;0.47;;;;;;;17.58;57.21;98640.81;5092294;28;20040;-64
2021/08/18 01:28:15;;;;;;;1.00;0.88;;;;;;;17.66;57.04;98645.78;5092835;28;20498;-65
2021/08/18 01:30:42;;;;;;;0.95;0.55;;;;;;;17.73;56.84;98643.50;5092530;28;20036;-65
2021/08/18 01:33:11;;;;;;;0.10;0.10;;;;;;;17.83;56.93;98637.09;5092444;28;20459;-65
2021/08/18 01:35:40;;;;;;;0.57;0.52;;;;;;;17.95;56.58;98633.97;5091681;28;20078;-66
2021/08/18 01:38:08;;;;;;;0.70;0.25;;;;;;;18.04;56.44;98633.06;5092044;28;20044;-65
2021/08/18 01:40:34;;;;;;;0.70;0.50;;;;;;;18.16;56.29;98638.25;5092506;28;20040;-65
2021/08/18 01:43:00;;;;;;;0.25;0.25;;;;;;;18.30;56.03;98645.94;5092255;28;20046;-64
2021/08/18 01:45:34;;;;;;;1.33;1.23;;;;;;;18.53;55.62;98645.19;5092239;28;20040;-64
2021/08/18 01:48:13;;;;;;;0.65;0.63;;;;;;;18.98;54.72;98647.03;5093978;28;20043;-64
2021/08/18 01:50:40;;;;;;;0.30;0.30;;;;;;;19.34;53.99;98652.19;5096311;28;20483;-65
2021/08/18 01:53:06;;;;;;;0.20;0.20;;;;;;;19.84;53.13;98649.91;5096574;28;20046;-65
2021/08/18 01:55:32;;;;;;;0.30;0.30;;;;;;;20.38;51.83;98635.72;5096233;28;20044;-67
2021/08/18 01:57:59;;;;;;;0.20;0.20;;;;;;;20.93;51.13;98641.47;5095989;28;20051;-64
2021/08/18 02:00:27;;;;;;;0.20;0.20;;;;;;;21.26;50.58;98649.78;5096125;28;20046;-65
2021/08/18 02:02:53;;;;;;;0.68;0.55;;;;;;;21.65;50.07;98654.03;5095846;28;20127;-63
2021/08/18 02:05:19;;;;;;;0.30;0.30;;;;;;;22.00;49.46;98651.59;5095644;28;20065;-64
2021/08/18 02:07:45;;;;;;;0.47;0.47;;;;;;;22.17;49.72;98658.47;5095969;28;20086;-63
2021/08/18 02:10:14;;;;;;;0.38;0.38;;;;;;;22.50;49.24;98649.91;5095612;28;20506;-63
2021/08/18 02:12:40;;;;;;;0.90;0.90;;;;;;;22.50;49.24;98659.13;5096188;28;20100;-64
2021/08/18 02:15:15;;;;;;;1.95;1.85;;;;;;;22.37;49.77;98660.00;5096135;28;20066;-64
2021/08/18 02:17:41;;;;;;;0.70;0.70;;;;;;;22.24;50.58;98670.06;5104972;28;20075;-63
2021/08/18 02:20:10;;;;;;;1.15;1.15;;;;;;;22.15;50.63;98663.56;5111322;28;20039;-63
2021/08/18 02:22:36;;;;;;;2.92;0.70;;;;;;;22.07;50.98;98667.09;5096143;28;20048;-64
2021/08/18 02:25:03;;;;;;;0.70;0.70;;;;;;;22.00;51.15;98673.94;5095446;28;20109;-64
2021/08/18 02:27:30;;;;;;;0.45;0.45;;;;;;;22.05;51.55;98661.81;5095501;28;20036;-64
2021/08/18 02:29:56;;;;;;;0.40;0.40;;;;;;;22.00;51.33;98673.94;5095462;28;20086;-63
2021/08/18 02:32:22;;;;;;;1.42;1.27;;;;;;;21.93;51.47;98667.16;5095510;28;20040;-63
2021/08/18 02:34:50;;;;;;;0.17;0.17;;;;;;;21.86;52.24;98674.00;5095282;28;20097;-63
2021/08/18 02:37:16;;;;;;;0.40;0.40;;;;;;;21.86;51.74;98687.13;5095205;28;20040;-63
2021/08/18 02:39:41;;;;;;;0.85;0.60;;;;;;;21.78;52.05;98682.28;5095880;28;20127;-63
2021/08/18 02:42:08;;;;;;;0.55;0.55;;;;;;;21.67;52.46;98684.44;5096257;28;20681;-65
2021/08/18 02:44:34;;;;;;;0.30;0.30;;;;;;;21.50;52.78;98690.66;5095157;28;20418;-63
2021/08/18 02:46:59;;;;;;;0.85;0.85;;;;;;;21.32;53.26;98690.44;5077224;28;20040;-63
2021/08/18 02:49:25;;;;;;;0.28;0.28;;;;;;;21.13;53.75;98698.88;5095649;28;20040;-64
2021/08/18 02:51:51;;;;;;;0.57;0.55;;;;;;;20.95;53.90;98695.03;5095583;28;20048;-63
2021/08/18 02:54:17;;;;;;;3.00;1.15;;;;;;;20.81;54.45;98691.38;5095224;28;20146;-64
2021/08/18 02:56:43;;;;;;;0.52;0.52;;;;;;;20.73;54.51;98692.06;5095338;28;20039;-63
2021/08/18 02:59:11;;;;;;;1.25;0.90;;;;;;;20.70;54.60;98692.66;5093736;28;20170;-65
2021/08/18 03:01:37;;;;;;;0.22;0.22;;;;;;;20.70;54.38;98698.25;5095027;28;20036;-63
2021/08/18 03:04:03;;;;;;;1.00;0.63;;;;;;;20.73;54.14;98692.91;5094333;28;20043;-64
2021/08/18 03:06:29;;;;;;;0.68;0.68;;;;;;;20.81;54.03;98683.00;5094944;28;20048;-64
2021/08/18 03:08:55;;;;;;;0.63;0.52;;;;;;;20.88;53.86;98693.78;5095196;28;20435;-64
2021/08/18 03:11:21;;;;;;;1.08;0.93;;;;;;;20.98;53.53;98700.00;5094782;28;20178;-65
2021/08/18 03:13:47;;;;;;;0.45;0.45;;;;;;;21.10;53.38;98696.72;5094659;28;20048;-64
2021/08/18 03:16:12;;;;;;;0.75;0.45;;;;;;;21.27;53.17;98698.06;5094669;28;20051;-64
2021/08/18 03:18:38;;;;;;;0.35;0.35;;;;;;;21.48;52.54;98701.28;5094799;28;20052;-65
2021/08/18 03:21:04;;;;;;;0.70;0.70;;;;;;;22.08;51.21;98705.09;5094754;28;20032;-64
2021/08/18 03:23:30;;;;;;;0.30;0.30;;;;;;;23.06;49.56;98698.81;5094414;28;20075;-63
2021/08/18 03:25:55;;;;;;;0.40;0.40;;;;;;;24.86;46.20;98695.50;5094176;28;20127;-65
2021/08/18 03:28:21;;;;;;;0.30;0.30;;;;;;;26.96;42.49;98701.97;5094441;28;20498;-65
2021/08/18 03:30:47;;;;;;;0.70;0.55;;;;;;;28.42;40.72;98701.63;5094491;28;20044;-64
2021/08/18 03:33:12;;;;;;;0.43;0.43;;;;;;;29.04;40.06;98699.41;5094248;28;20044;-65
2021/08/18 03:35:38;;;;;;;1.23;1.13;;;;;;;29.08;40.60;98693.84;5093826;28;20043;-64
2021/08/18 03:38:04;;;;;;;0.50;0.50;;;;;;;29.13;40.98;98691.56;5094537;28;20093;-64
2021/08/18 03:40:30;;;;;;;0.08;0.08;;;;;;;29.28;41.20;98700.47;5093819;28;20040;-65
2021/08/18 03:42:56;;;;;;;0.70;0.30;;;;;;;28.77;42.08;98695.41;5093797;28;20446;-64
2021/08/18 03:45:21;;;;;;;0.30;0.28;;;;;;;28.47;42.84;98702.22;5093856;28;20105;-65
2021/08/18 03:47:47;;;;;;;1.05;0.40;;;;;;;28.57;42.71;98698.03;5075824;28;20040;-65
2021/08/18 03:50:13;;;;;;;1.48;0.55;;;;;;;28.60;42.73;98696.50;5093851;28;20048;-65
2021/08/18 03:52:40;;;;;;;1.95;0.98;;;;;;;28.35;43.24;98684.47;5093815;28;20521;-63
2021/08/18 03:55:07;;;;;;;0.20;0.20;;;;;;;27.86;44.21;98691.81;5093935;28;20110;-64
2021/08/18 03:57:33;;;;;;;0.68;0.22;;;;;;;27.22;45.21;98690.41;5093491;28;20056;-63
2021/08/18 03:59:59;;;;;;;0.30;0.30;;;;;;;26.69;45.99;98690.97;5094105;28;20036;-63
2021/08/18 04:02:26;;;;;;;0.35;0.30;;;;;;;25.97;47.36;98682.53;5093736;28;20466;-63
2021/08/18 04:04:52;;;;;;;3.25;1.13;;;;;;;25.35;48.14;98698.03;5093412;28;20040;-63
2021/08/18 04:07:18;;;;;;;0.10;0.10;;;;;;;24.87;48.81;98690.69;5093999;28;20113;-63
2021/08/18 04:09:44;;;;;;;0.95;0.95;;;;;;;24.48;49.34;98691.38;5075325;28;20509;-63
2021/08/18 04:12:11;;;;;;;1.55;0.40;;;;;;;24.24;49.58;98702.25;5093964;28;20039;-65
2021/08/18 04:14:37;;;;;;;0.50;0.45;;;;;;;24.19;49.15;98688.38;5094270;28;20040;-64
2021/08/18 04:17:03;;;;;;;0.10;0.10;;;;;;;24.23;48.69;98695.81;5075815;28;20426;-64
2021/08/18 04:19:29;;;;;;;2.20;0.47;;;;;;;24.30;48.19;98698.94;5077622;28;20036;-64
2021/08/18 04:21:55;;;;;;;0.40;0.40;;;;;;;24.36;47.87;98705.22;5111025;28;20040;-64
2021/08/18 04:24:20;;;;;;;0.63;0.38;;;;;;;24.31;47.75;98694.19;5094537;28;20086;-64
2021/08/18 04:26:46;;;;;;;0.10;0.10;;;;;;;24.33;47.80;98700.28;5090804;28;20051;-65
2021/08/18 04:29:12;;;;;;;0.55;0.55;;;;;;;24.56;46.82;98706.56;5093070;28;20044;-65
2021/08/18 04:31:38;;;;;;;1.35;0.77;;;;;;;25.24;45.64;98703.19;5075111;28;20040;-64
2021/08/18 04:34:03;;;;;;;0.10;0.10;;;;;;;26.90;42.42;98713.47;5092471;28;20043;-66
2021/08/18 04:36:29;;;;;;;0.10;0.10;;;;;;;30.27;37.09;98713.84;5093282;28;20506;-65
2021/08/18 04:38:55;;;;;;;0.20;0.20;;;;;;;30.75;36.66;98711.69;5092568;28;20355;-64
2021/08/18 04:41:20;;;;;;;0.63;0.52;;;;;;;29.64;39.19;98707.88;5093158;28;20040;-64
2021/08/18 04:43:46;;;;;;;0.05;0.05;;;;;;;28.66;40.88;98714.88;5088129;28;20059;-65
2021/08/18 04:46:12;;;;;;;0.20;0.20;;;;;;;27.97;42.16;98703.44;5079790;28;20040;-67
2021/08/18 04:48:37;;;;;;;0.10;0.10;;;;;;;27.53;42.79;98706.00;5082214;28;20403;-64
2021/08/18 04:51:05;;;;;;;0.10;0.10;;;;;;;27.36;43.17;98699.41;5080498;28;20080;-65
2021/08/18 04:53:30;;;;;;;0.13;0.13;;;;;;;27.48;42.70;98709.06;5077403;28;20086;-66
2021/08/18 04:55:56;;;;;;;0.10;0.10;;;;;;;27.95;41.54;98702.97;5082088;28;20055;-64
2021/08/18 04:58:22;;;;;;;0.10;0.10;;;;;;;28.22;41.25;98701.41;5080245;28;20048;-64
2021/08/18 05:00:47;;;;;;;0.13;0.13;;;;;;;28.32;41.17;98702.94;5081829;28;20047;-63
2021/08/18 05:03:16;;;;;;;0.30;0.30;;;;;;;28.18;41.30;98697.69;5081744;28;20072;-64
2021/08/18 05:05:45;;;;;;;0.20;0.20;;;;;;;27.80;41.93;98708.13;5064396;28;20097;-64
2021/08/18 05:08:10;;;;;;;0.10;0.10;;;;;;;27.47;42.27;98707.41;5079624;28;20040;-65
2021/08/18 05:10:37;;;;;;;0.30;0.30;;;;;;;27.00;43.20;98706.59;5082226;28;20076;-64
2021/08/18 05:13:03;;;;;;;0.10;0.10;;;;;;;26.82;43.46;98716.38;5084576;28;20046;-65
2021/08/18 05:15:30;;;;;;;0.38;0.38;;;;;;;26.75;43.23;98705.66;5060616;28;20051;-64
2021/08/18 05:17:56;;;;;;;0.15;0.15;;;;;;;26.75;43.04;98709.31;5082463;28;20044;-66
2021/08/18 05:20:22;;;;;;;0.20;0.20;;;;;;;26.76;42.97;98715.75;5081719;28;20042;-65
2021/08/18 05:22:49;;;;;;;0.43;0.43;;;;;;;26.79;42.71;98709.44;5079792;28;20405;-65
2021/08/18 05:25:17;;;;;;;0.20;0.20;;;;;;;26.84;42.80;98708.38;5062972;28;20609;-65
2021/08/18 05:27:43;;;;;;;2.55;0.57;;;;;;;26.89;42.49;98700.53;5081039;28;20045;-65
2021/08/18 05:30:16;;;;;;;0.10;0.10;;;;;;;26.98;42.13;98708.09;5081087;28;20039;-67
2021/08/18 05:32:43;;;;;;;0.10;0.10;;;;;;;27.05;42.05;98697.09;5082458;28;20062;-64
2021/08/18 05:35:13;;;;;;;0.30;0.30;;;;;;;27.04;42.05;98701.06;5082486;28;20044;-64
2021/08/18 05:37:39;;;;;;;0.52;0.20;;;;;;;27.01;41.88;98701.75;5081957;28;20143;-65
2021/08/18 05:40:05;;;;;;;0.10;0.10;;;;;;;26.97;42.04;98703.63;5082534;28;20510;-64
2021/08/18 05:42:31;;;;;;;0.47;0.47;;;;;;;26.89;41.82;98705.38;5080917;28;20407;-65
2021/08/18 05:44:57;;;;;;;0.10;0.10;;;;;;;26.79;42.08;98700.97;5082192;28;20036;-64
2021/08/18 05:47:23;;;;;;;0.15;0.15;;;;;;;26.65;42.05;98706.88;5082191;28;20036;-64
2021/08/18 05:49:49;;;;;;;0.45;0.10;;;;;;;26.61;42.33;98700.28;5080782;28;20033;-65
2021/08/18 05:52:15;;;;;;;0.22;0.20;;;;;;;26.74;42.04;98692.75;5080748;28;20491;-64
2021/08/18 05:54:41;;;;;;;0.00;0.00;;;;;;;26.93;41.77;98704.31;5082242;28;20559;-65
2021/08/18 05:57:06;;;;;;;0.30;0.30;;;;;;;27.12;41.38;98702.97;5082479;28;20124;-65
2021/08/18 05:59:32;;;;;;;0.40;0.40;;;;;;;27.10;41.16;98705.31;5080586;28;20062;-65
2021/08/18 06:01:58;;;;;;;0.13;0.13;;;;;;;26.89;41.50;98711.00;5082219;28;20107;-65
2021/08/18 06:04:23;;;;;;;0.10;0.10;;;;;;;26.62;41.76;98712.34;5079564;28;20028;-65
2021/08/18 06:06:49;;;;;;;0.30;0.30;;;;;;;26.17;42.71;98709.06;5079996;28;20065;-64
2021/08/18 06:09:16;;;;;;;0.10;0.10;;;;;;;25.85;42.92;98697.34;5080509;28;20113;-64
2021/08/18 06:11:43;;;;;;;0.20;0.20;;;;;;;25.70;43.01;98709.97;5064031;28;20426;-65
2021/08/18 06:14:09;;;;;;;0.10;0.10;;;;;;;25.47;43.51;98688.91;5084835;28;20101;-64
2021/08/18 06:16:35;;;;;;;0.10;0.10;;;;;;;25.35;43.19;98698.03;5085681;28;20130;-65
2021/08/18 06:19:01;;;;;;;0.10;0.10;;;;;;;25.25;43.55;98698.38;5081160;28;20036;-63
2021/08/18 06:21:28;;;;;;;0.10;0.10;;;;;;;25.16;43.44;98687.16;5083042;28;20041;-66
2021/08/18 06:24:00;;;;;;;0.15;0.15;;;;;;;24.98;43.33;98703.25;5062288;28;20052;-65
2021/08/18 06:26:25;;;;;;;0.17;0.17;;;;;;;24.82;43.56;98700.97;5081247;28;20060;-65
2021/08/18 06:28:51;;;;;;;0.20;0.20;;;;;;;24.61;43.69;98702.78;5082261;28;20410;-65
2021/08/18 06:31:17;;;;;;;0.10;0.10;;;;;;;24.42;44.14;98701.09;5080527;28;20128;-64
2021/08/18 06:33:42;;;;;;;0.20;0.20;;;;;;;24.36;43.69;98696.81;5082243;28;20521;-65
2021/08/18 06:36:08;;;;;;;1.48;0.20;;;;;;;24.33;43.95;98694.66;5085603;28;20032;-65
2021/08/18 06:38:34;;;;;;;0.00;0.00;;;;;;;24.21;44.01;98694.50;5083805;28;20079;-65
2021/08/18 06:40:59;;;;;;;0.10;0.10;;;;;;;24.08;43.74;98699.91;5085532;28;20093;-64
2021/08/18 06:43:25;;;;;;;0.00;0.00;;;;;;;23.94;43.81;98704.88;5085133;28;20082;-65
2021/08/18 06:45:51;;;;;;;0.10;0.10;;;;;;;23.85;43.86;98695.56;5086543;28;20120;-66
2021/08/18 06:48:17;;;;;;;0.20;0.20;;;;;;;23.78;44.11;98696.03;5088877;28;20042;-65
2021/08/18 06:50:42;;;;;;;0.40;0.40;;;;;;;23.72;44.00;98700.97;5084896;28;20062;-65
2021/08/18 06:53:08;;;;;;;0.52;0.52;;;;;;;23.74;43.92;98692.22;5085036;28;20040;-65
2021/08/18 06:55:35;;;;;;;0.43;0.20;;;;;;;23.71;43.63;98696.50;5083273;28;20513;-64
2021/08/18 06:58:01;;;;;;;0.15;0.15;;;;;;;23.62;43.70;98687.25;5085185;28;20043;-66
2021/08/18 07:00:27;;;;;;;0.20;0.15;;;;;;;23.56;43.93;98682.94;5084758;28;20040;-66
2021/08/18 07:02:52;;;;;;;0.15;0.15;;;;;;;23.54;43.86;98679.63;5081984;28;20080;-64
2021/08/18 07:05:20;;;;;;;0.10;0.10;;;;;;;23.54;43.73;98674.88;5076671;28;20102;-65
2021/08/18 07:07:47;;;;;;;0.10;0.10;;;;;;;23.54;43.56;98676.81;5081691;28;20115;-66
2021/08/18 07:10:15;;;;;;;0.10;0.10;;;;;;;23.61;43.58;98668.78;5082467;28;20043;-65
2021/08/18 07:12:40;;;;;;;3.85;0.45;;;;;;;23.66;43.55;98677.06;5076394;28;20112;-66
2021/08/18 07:15:07;;;;;;;0.20;0.20;;;;;;;23.71;43.56;98668.47;5077330;28;20139;-65
2021/08/18 07:17:33;;;;;;;0.35;0.10;;;;;;;23.80;43.02;98671.31;5074183;28;20048;-66
2021/08/18 07:19:59;;;;;;;0.98;0.90;;;;;;;23.89;42.88;98677.78;5074672;28;20505;-65
2021/08/18 07:22:25;;;;;;;3.25;1.20;;;;;;;23.94;42.83;98668.41;5079509;28;20163;-66
2021/08/18 07:24:51;;;;;;;3.20;0.63;;;;;;;24.00;43.07;98669.06;5089446;28;20086;-65
2021/08/18 07:27:17;;;;;;;0.10;0.10;;;;;;;24.05;42.50;98666.91;5072893;28;20134;-65
2021/08/18 07:29:42;;;;;;;1.67;0.25;;;;;;;24.10;42.60;98674.34;5072759;28;20051;-65
2021/08/18 07:32:09;;;;;;;0.10;0.10;;;;;;;24.13;42.58;98673.69;5075720;28;20032;-65
2021/08/18 07:34:34;;;;;;;1.17;0.98;;;;;;;24.14;42.80;98667.78;5062586;28;20490;-65
2021/08/18 07:37:01;;;;;;;0.25;0.25;;;;;;;24.20;42.75;98667.59;5088413;28;20040;-65
2021/08/18 07:39:26;;;;;;;0.10;0.10;;;;;;;24.25;42.31;98676.69;5092024;28;20048;-64
2021/08/18 07:41:52;;;;;;;0.20;0.20;;;;;;;24.35;42.25;98669.09;5084679;28;20501;-64
2021/08/18 07:44:18;;;;;;;0.25;0.25;;;;;;;24.52;42.22;98674.69;5072455;28;20048;-65
2021/08/18 07:46:46;;;;;;;0.43;0.43;;;;;;;24.68;41.99;98665.81;5067383;28;20123;-65
2021/08/18 07:49:13;;;;;;;0.10;0.10;;;;;;;24.89;41.41;98665.94;5073331;28;20135;-65
2021/08/18 07:51:39;;;;;;;0.10;0.10;;;;;;;25.10;41.24;98655.63;5091233;28;20567;-66
2021/08/18 07:54:05;;;;;;;0.15;0.15;;;;;;;25.32;40.95;98662.19;5089031;28;20036;-64
2021/08/18 07:56:33;;;;;;;0.10;0.10;;;;;;;25.51;40.82;98653.34;5084240;28;20445;-64
2021/08/18 07:59:00;;;;;;;0.85;0.63;;;;;;;25.66;40.37;98655.59;5088344;28;20039;-65
2021/08/18 08:01:26;;;;;;;0.13;0.13;;;;;;;25.81;40.07;98656.13;5054901;28;20544;-65
2021/08/18 08:03:52;;;;;;;0.40;0.40;;;;;;;25.93;40.06;98656.25;5071056;28;20028;-64
2021/08/18 08:06:18;;;;;;;0.08;0.08;;;;;;;26.04;39.96;98645.44;5091770;28;20552;-63
2021/08/18 08:08:43;;;;;;;0.20;0.20;;;;;;;26.08;39.93;98643.59;5078889;28;20048;-66
2021/08/18 08:11:09;;;;;;;0.10;0.10;;;;;;;25.97;40.30;98643.16;5075307;28;20051;-64
2021/08/18 08:13:35;;;;;;;0.10;0.10;;;;;;;25.81;40.57;98650.50;5083207;28;20044;-67
2021/08/18 08:16:41;;;;;;;0.55;0.15;;;;;;;25.55;41.07;98633.81;5091728;28;20032;-68
2021/08/18 08:19:46;;;;;;;0.10;0.10;;;;;;;25.36;41.56;98637.88;5068414;28;20044;-65
2021/08/18 08:22:52;;;;;;;0.30;0.30;;;;;;;25.44;41.36;98637.00;5070651;28;20068;-68
2021/08/18 08:25:57;;;;;;;0.10;0.10;;;;;;;25.56;40.92;98632.63;5070903;28;20052;-65
2021/08/18 08:29:02;;;;;;;0.22;0.22;;;;;;;25.73;40.58;98632.53;5082866;28;20081;-65
2021/08/18 08:32:08;;;;;;;0.10;0.10;;;;;;;25.96;40.29;98635.06;5091028;28;20043;-64
2021/08/18 08:35:13;;;;;;;0.32;0.22;;;;;;;26.27;39.50;98637.47;5061700;28;20047;-64
2021/08/18 08:38:19;;;;;;;0.10;0.10;;;;;;;26.53;39.41;98645.69;5082011;28;20048;-64
2021/08/18 08:44:48;;;;;;;0.10;0.10;;;;;;;26.98;38.90;98629.22;5081694;28;20066;-66
2021/08/18 08:47:54;;;;;;;1.52;0.13;;;;;;;27.21;38.27;98630.41;5075308;28;20040;-65
2021/08/18 08:50:59;;;;;;;1.75;0.70;;;;;;;27.42;38.00;98630.34;5072188;28;20044;-63
2021/08/18 08:54:05;;;;;;;0.13;0.13;;;;;;;27.62;37.88;98625.75;5071200;28;20047;-64
2021/08/18 08:57:10;;;;;;;0.10;0.10;;;;;;;27.83;37.55;98624.81;5079281;28;20040;-66
2021/08/18 09:03:15;;;;;;;0.10;0.10;;;;;;;27.95;38.06;98632.44;5068437;28;20047;-65
2021/08/18 09:05:43;;;;;;;0.10;0.10;;;;;;;27.94;37.81;98627.94;5080548;28;20041;-63
2021/08/18 09:08:11;;;;;;;0.63;0.20;;;;;;;28.04;37.89;98618.22;5073701;28;20134;-65
2021/08/18 09:10:37;;;;;;;0.10;0.10;;;;;;;28.19;37.50;98617.44;5090553;28;20040;-66
2021/08/18 09:13:19;;;;;;;0.10;0.10;;;;;;;28.15;37.78;98616.53;5090096;28;20047;-63
2021/08/18 09:16:05;;;;;;;;;;;;;;;28.08;37.96;98616.31;5091061;28;20040;-64
2021/08/18 09:18:49;;;;;;;0.10;0.10;;;;;;;28.08;37.69;98616.31;5083167;28;19920;-66
2021/08/18 09:21:38;;;;;;;0.10;0.10;;;;;;;28.09;37.73;98615.13;5081352;28;20503;-64
2021/08/18 09:24:19;;;;;;;0.10;0.10;;;;;;;27.98;38.17;98608.34;5068516;28;20060;-63
2021/08/18 09:26:56;;;;;;;1.55;0.95;;;;;;;27.91;38.22;98606.91;5070236;28;20036;-63
2021/08/18 09:29:42;;;;;;;0.15;0.15;;;;;;;27.89;38.14;98597.16;5077688;28;20517;-66
2021/08/18 09:32:23;;;;;;;0.20;0.20;;;;;;;27.90;37.96;98610.91;5080951;28;20132;-65
2021/08/18 09:34:58;;;;;;;0.15;0.15;;;;;;;27.90;37.99;98608.09;5084347;28;20518;-66
2021/08/18 09:37:25;;;;;;;0.20;0.20;;;;;;;27.64;38.57;98614.13;5080965;28;20593;-63
2021/08/18 09:39:52;;;;;;;0.20;0.20;;;;;;;27.55;38.61;98619.88;5077518;28;20041;-63
2021/08/18 09:42:28;;;;;;;0.45;0.40;;;;;;;27.50;38.62;98616.47;5078569;28;20040;-68
2021/08/18 09:45:18;;;;;;;0.10;0.10;;;;;;;27.52;38.56;98603.69;5090048;28;20040;-64
2021/08/18 09:48:00;;;;;;;0.10;0.10;;;;;;;27.75;38.06;98608.81;5072873;28;20041;-65
2021/08/18 09:50:30;;;;;;;1.00;0.20;;;;;;;27.90;38.05;98610.09;5070075;28;20037;-65
2021/08/18 09:53:07;;;;;;;0.20;0.20;;;;;;;27.78;37.99;98610.94;5083807;28;20060;-64
2021/08/18 09:55:38;;;;;;;0.32;0.20;;;;;;;27.42;38.54;98621.06;5089939;28;20036;-65
2021/08/18 09:58:22;;;;;;;0.30;0.20;;;;;;;27.30;38.75;98618.19;5072189;28;20071;-64
2021/08/18 10:00:51;;;;;;;0.10;0.10;;;;;;;27.21;38.88;98616.31;5084106;28;20044;-63
2021/08/18 10:03:17;;;;;;;0.30;0.30;;;;;;;27.18;38.92;98608.56;5083081;28;20078;-64
2021/08/18 10:05:43;;;;;;;0.10;0.10;;;;;;;27.18;38.66;98608.56;5082129;28;20115;-64
2021/08/18 10:08:09;;;;;;;0.10;0.10;;;;;;;27.25;38.62;98608.81;5070062;28;20119;-64
2021/08/18 10:10:39;;;;;;;0.10;0.10;;;;;;;27.36;38.59;98589.47;5085491;28;20402;-62
2021/08/18 10:13:07;;;;;;;0.47;0.20;;;;;;;27.44;38.43;98590.50;5080176;28;20086;-64
2021/08/18 10:15:33;;;;;;;1.48;0.40;;;;;;;27.51;38.05;98590.75;5080866;28;20107;-64
2021/08/18 10:17:59;;;;;;;0.55;0.32;;;;;;;27.61;37.90;98584.63;5092301;28;20040;-64
2021/08/18 10:20:25;;;;;;;2.05;0.40;;;;;;;27.72;37.80;98598.25;5074000;28;20044;-65
2021/08/18 10:23:13;;;;;;;0.50;0.50;;;;;;;27.77;37.64;98586.72;5085491;28;20071;-64
2021/08/18 10:25:46;;;;;;;0.25;0.22;;;;;;;27.93;37.55;98590.47;5087294;28;20461;-64
2021/08/18 10:28:16;;;;;;;0.20;0.20;;;;;;;28.05;37.09;98586.81;5090515;28;20043;-67
2021/08/18 10:30:51;;;;;;;0.30;0.30;;;;;;;28.01;37.22;98588.69;5083447;28;20036;-63
2021/08/18 10:33:50;;;;;;;0.15;0.15;;;;;;;27.87;37.25;98574.13;5079453;28;20104;-64
2021/08/18 10:36:41;;;;;;;0.10;0.10;;;;;;;27.79;37.55;98581.53;5097189;28;20051;-65
2021/08/18 10:39:25;;;;;;;0.20;0.20;;;;;;;27.67;37.62;98576.75;5102511;28;20051;-65
2021/08/18 10:42:11;;;;;;;0.20;0.20;;;;;;;27.60;37.72;98571.69;5110600;28;20099;-64
2021/08/18 10:44:43;;;;;;;0.10;0.10;;;;;;;27.62;37.82;98563.72;5106050;28;20548;-68
2021/08/18 10:47:12;;;;;;;1.55;0.32;;;;;;;27.61;37.64;98575.34;5089771;28;20037;-66
2021/08/18 10:49:38;;;;;;;0.82;0.40;;;;;;;27.57;37.79;98578.03;5090507;28;20452;-66
2021/08/18 10:52:04;;;;;;;0.47;0.47;;;;;;;27.63;37.66;98567.34;5092377;28;20025;-64
2021/08/18 10:54:30;;;;;;;0.40;0.40;;;;;;;27.69;37.46;98571.56;5094220;28;20119;-64
2021/08/18 10:56:59;;;;;;;1.60;1.50;;;;;;;27.75;37.26;98566.50;5083624;28;20075;-65
2021/08/18 10:59:37;;;;;;;0.30;0.30;;;;;;;27.77;37.29;98567.00;5075590;28;20094;-63
2021/08/18 11:02:04;;;;;;;0.38;0.38;;;;;;;27.74;37.40;98562.06;5078226;28;20118;-65
2021/08/18 11:04:43;;;;;;;0.47;0.47;;;;;;;27.74;37.32;98559.25;5076252;28;20033;-64
2021/08/18 11:07:10;;;;;;;0.20;0.20;;;;;;;27.78;37.15;98561.00;5079717;28;20067;-62
2021/08/18 11:09:48;;;;;;;1.90;0.90;;;;;;;27.92;37.17;98560.59;5075118;28;20043;-65
2021/08/18 11:12:38;;;;;;;2.08;0.73;;;;;;;28.06;36.80;98562.22;5078443;28;20043;-63
2021/08/18 11:15:19;;;;;;;1.27;0.77;;;;;;;28.12;36.76;98561.63;5084509;28;20701;-65
2021/08/18 11:17:50;;;;;;;0.32;0.32;;;;;;;28.16;36.75;98555.25;5083006;28;20044;-63
2021/08/18 11:20:21;;;;;;;0.30;0.30;;;;;;;28.13;36.76;98559.59;5061167;28;20628;-64
2021/08/18 11:23:14;;;;;;;0.32;0.32;;;;;;;28.16;36.58;98547.59;5083174;28;20044;-64
2021/08/18 11:25:44;;;;;;;0.10;0.10;;;;;;;28.24;36.76;98549.47;5078648;28;20044;-62
2021/08/18 11:28:21;;;;;;;2.72;0.47;;;;;;;28.22;36.78;98548.97;5066356;28;20058;-65
2021/08/18 11:31:10;;;;;;;0.85;0.65;;;;;;;28.07;37.12;98544.13;5081617;28;20499;-61
2021/08/18 11:33:38;;;;;;;0.55;0.45;;;;;;;27.91;37.23;98555.31;5081608;28;20043;-63
2021/08/18 11:36:16;;;;;;;3.95;0.95;;;;;;;27.79;37.22;98545.69;5081912;28;20754;-68
2021/08/18 11:38:42;;;;;;;0.20;0.20;;;;;;;27.74;37.43;98553.59;5082026;28;20036;-62
2021/08/18 11:41:08;;;;;;;0.50;0.50;;;;;;;27.67;37.63;98553.38;5081988;28;20409;-62
2021/08/18 11:43:43;;;;;;;0.57;0.52;;;;;;;27.62;37.67;98543.97;5083755;28;20044;-65
2021/08/18 11:46:10;;;;;;;0.68;0.68;;;;;;;27.62;37.50;98552.44;5082709;28;20047;-63
2021/08/18 11:48:37;;;;;;;0.35;0.32;;;;;;;27.60;37.47;98554.78;5081611;28;20051;-65
2021/08/18 11:51:07;;;;;;;0.30;0.30;;;;;;;27.60;37.42;98546.31;5082330;28;20043;-64
2021/08/18 11:53:32;;;;;;;0.82;0.47;;;;;;;27.64;37.29;98540.78;5065937;28;20067;-67